LJLJLOWI

Guest
Details From LJLJ - Ljubljana
To LOWI - Innsbruck Kranebitten
Flight Number -
Tags Generated
Created
Modified
Stats Distance 142 nm / 263 km
Max Altitude 0 ft / 0 m
Waypoints 2
Social Downloads 1
Likes 0
Share VATSIM

Download

Looking for another format? Having issues loading an existing format? Contact us
Advertisement - Login to hide

Notes

Generated

Route

LJLJ LOWI

ID Type Via Altitude Latitude Longitude Leg Dist Tot Dist Heading (true) Name
O LJLJ APT - 0 ft / 0 m 46.23249˚ 14.44039˚ - 0 nm - -
O LOWI APT - 0 ft / 0 m 47.25883˚ 11.33091˚ 142 nm 142 nm 297° / 295° -

Altitude Profile

Advertisement - Login to hide

LJLJ

Details ICAO LJLJ (LJU)
Name LJUBLJANA
Region Slovenia
Timezone Europe/Ljubljana (UTC+2.0)
Stats Elevation 1,273 ft / 388 m (AMSL)
Location 46.223685° 14.457608°
Runways 1
Magnetic Variation 3.712° E

METAR

LJLJ 230930Z 08003KT 330V140 9999 FEW012 SCT120 BKN250 18/15 Q1018 NOSIG

Decode

TAF

TAF TAF LJLJ 230800Z 2309/2409 12005KT 9999 FEW040 SCT090 BKN250 TEMPO 2311/2409 SHRA SCT040TCU BKN070 PROB40 TEMPO 2312/2318 VRB15KT 5000 TSRA SCT040CB BKN050 BECMG 2319/2321 30003KT TEMPO 2321/2409 BKN040

Decode

Departure Runways

ID Width Length Bearing (true) Bearing (mag) Surface Threshold Offset Overrun Length
13 148 ft / 45 m 10,811 ft / 3,295 m 126.47° 122.76° Asphalt 0 ft / 0 m 0 ft / 0 m
31 148 ft / 45 m 10,811 ft / 3,295 m 306.49° 302.78° Asphalt 0 ft / 0 m 0 ft / 0 m

LOWI

Details ICAO LOWI (INN)
Name Innsbruck Kranebitten
Region Austria
Timezone Europe/Vienna (UTC+2.0)
Stats Elevation 1,906 ft / 581 m (AMSL)
Location 47.260226° 11.343967°
Runways 1
Magnetic Variation 3.071° E

METAR

LOWI 230920Z VRB03KT 9999 FEW060 SCT095 BKN300 20/08 Q1017 TEMPO 09007KT

Decode

TAF

TAF LOWI 230515Z 2306/2406 27003KT 9999 FEW100 BKN300 TX23/2314Z TN13/2306Z BECMG 2309/2311 08007KT TEMPO 2313/2320 11010G20KT -SHRA FEW060CB BKN100 PROB30 TEMPO 2314/2320 VRB15G25KT TSRA FEW050CB BKN070 BECMG 2319/2321 27005KT PROB40 TEMPO 2402/2406 27010KT SHRA FEW030 BKN060

Decode

Destination Runways

ID Width Length Bearing (true) Bearing (mag) Surface Threshold Offset Overrun Length
08 148 ft / 45 m 6,545 ft / 1,995 m 81.02° 77.95° Asphalt 338 ft / 103 m 0 ft / 0 m
26 148 ft / 45 m 6,545 ft / 1,995 m 261.04° 257.97° Asphalt 0 ft / 0 m 0 ft / 0 m

Approach Navaids

Runway Type Ident Frequency Range Bearing (true) Bearing (mag) Slope Elevation
26 Localiser OEV 111.10 MHz 27 nm / 50 km 256.00° 252.93° - 1,906 ft / 581 m (AMSL)
26 Localiser OEJ 109.70 MHz 30 nm / 56 km 69.00° 65.93° - 1,906 ft / 581 m (AMSL)
26 Glidescope OEV 111.10 MHz 18 nm / 33 km 256.00° 252.93° 3.80° 1,911 ft / 582 m (AMSL)
26 DME OEJ 109.70 MHz 30 nm / 56 km - - - 1,906 ft / 581 m (AMSL)
26 DME OEV 111.10 MHz 27 nm / 50 km - - - 1,911 ft / 582 m (AMSL)

Popular Alternatives